Airfield :
LOGIN :

Register | Disclaimer

   EN    FR    IT 

 










Legend :    VFR   Marginal VFR   IFR   Intensive IFR   Very Intensive IFR
Visi :
Ceiling :
>= 8 km
>= 3000ft
5 to 8 km
1000 to 3000 ft
1500m to 5 km
500 to 1000 ft
800 to 1500m
200 to 500 ft
< 800m
< 200 ft
Symbols :   Thunderstorms  Fog  Heavy snow  Heavy precipitations  Wind > 20 kt
SIGMETs :     Misc.  Thunderstorms  Icing  Turbulence  Mountain Waves  Volcanic Ashes







- Airport Elevation : 885 ft
- IATA code : BAS
- Download approach charts


LFSB - Bale-Mulhouse

CURRENT METAR :
  • 111930Z 00000KT CAVOK M00/M01 Q1024 NOSIG

EXPIRED METARs :
  • 111900Z VRB02KT CAVOK 00/M01 Q1024 NOSIG
  • 111830Z VRB01KT CAVOK 01/M01 Q1023 NOSIG
  • 111800Z VRB03KT CAVOK 01/M01 Q1024 NOSIG
  • 111730Z VRB03KT CAVOK 02/M01 Q1023 NOSIG
  • 111700Z 24003KT CAVOK 03/00 Q1024 NOSIG

TAF TAF LFSB
Valid from the 11 at 18:00 until the 12 at 18:00 UTC


111700Z 1118/1218 VRB03KT CAVOK
BECMG 1200/1203 3000 BR
BECMG 1203/1205 0200 FZFG VV///
BECMG 1206/1208 3000 BR OVC003
BECMG 1208/1210 6000 NSW BKN008
BECMG 1210/1212 BKN012
BECMG 1215/1217 BKN007
Met : +33 3 89 90 31 11
No reported NOTAMs for that airfield.



MET'MAP, your aeronautical weather chart ! - Copyright ORBIFLY December 2007 - Disclaimer

ORBIFLY MET'MAP TEAM :

Programming & Development : Alexandra Zaïnal
Concept & Development : Baudouin d'Aumeries
Co-Development & Prog : Marc-Olivier Méhu
Technical & hardware support : Manuel Goepfert

Contact : metmap@orbifly.com




SOURCES & CREDITS :

   NOAA